Time;durP1;ratioP1;P1;durP2;ratioP2;P2;SDS_P1;SDS_P2;PMS_P1;PMS_P2;Temp;Humidity;BMP_temperature;BMP_pressure;BME280_temperature;BME280_humidity;BME280_pressure;Samples;Min_cycle;Max_cycle;Signal;HPM_P1;HPM_P2
2022/01/17 00:02:36;;;;;;;29.30;16.60;;;;;;;1.50;85.90;99602.96;207975;1323;142067;-78
2022/01/17 00:07:41;;;;;;;22.20;13.20;;;;;;;1.52;85.78;99596.33;208587;1320;139895;-76
2022/01/17 00:12:47;;;;;;;34.70;18.30;;;;;;;1.55;85.73;99591.98;207186;1321;140464;-75
2022/01/17 00:18:19;;;;;;;27.40;15.50;;;;;;;1.58;85.68;99578.48;208517;1319;142500;-76
2022/01/17 00:23:18;;;;;;;33.10;15.70;;;;;;;1.64;85.76;99563.23;207838;1320;141780;-74
2022/01/17 00:28:22;;;;;;;34.40;16.20;;;;;;;1.72;85.93;99559.89;208009;1323;141145;-74
2022/01/17 00:33:27;;;;;;;34.30;17.70;;;;;;;1.74;85.74;99544.36;207615;1319;139423;-74
2022/01/17 00:38:31;;;;;;;37.60;18.70;;;;;;;1.79;85.61;99519.58;207912;1324;140498;-75
2022/01/17 00:43:36;;;;;;;30.80;18.80;;;;;;;1.84;85.52;99513.58;207586;1319;141495;-75
2022/01/17 00:49:01;;;;;;;23.40;13.80;;;;;;;1.85;85.66;99511.20;208242;1320;139628;-75
2022/01/17 00:54:05;;;;;;;37.90;18.80;;;;;;;1.88;85.86;99503.11;207454;1323;140284;-76
2022/01/17 00:59:11;;;;;;;35.80;18.90;;;;;;;1.93;85.75;99510.34;207684;1320;141528;-73
2022/01/17 01:04:15;;;;;;;26.60;14.00;;;;;;;1.95;85.78;99508.71;207104;1321;140240;-73
2022/01/17 01:09:23;;;;;;;33.60;18.50;;;;;;;1.95;86.04;99493.67;207060;1323;141628;-75
2022/01/17 01:14:28;;;;;;;33.70;17.30;;;;;;;1.95;85.73;99482.05;206535;1319;140109;-73
2022/01/17 01:19:40;;;;;;;42.40;21.10;;;;;;;1.95;85.93;99473.81;207189;1318;140446;-75
2022/01/17 01:30:15;;;;;;;33.20;19.00;;;;;;;2.04;85.94;99456.64;207331;1319;142327;-77
2022/01/17 01:35:28;;;;;;;43.20;20.10;;;;;;;2.06;86.14;99453.42;206879;1317;139136;-75
2022/01/17 01:40:34;;;;;;;35.00;19.10;;;;;;;2.07;86.01;99444.55;207515;1319;140175;-75
2022/01/17 01:45:39;;;;;;;39.00;20.00;;;;;;;2.09;86.31;99433.27;207163;1319;140244;-71
2022/01/17 01:50:44;;;;;;;31.50;17.20;;;;;;;2.13;86.20;99430.68;206604;1319;140925;-68
2022/01/17 01:55:57;;;;;;;29.30;14.80;;;;;;;2.13;86.17;99421.35;207254;1318;140965;-71
2022/01/17 02:01:03;;;;;;;30.20;17.30;;;;;;;2.13;86.19;99410.25;206874;1316;140797;-71
2022/01/17 02:06:08;;;;;;;30.60;17.00;;;;;;;2.16;86.38;99399.95;208587;1317;140811;-71
2022/01/17 02:11:13;;;;;;;27.10;15.00;;;;;;;2.19;86.43;99396.17;207760;1320;142934;-67
2022/01/17 02:16:21;;;;;;;32.00;18.00;;;;;;;2.21;86.36;99389.40;209601;1317;141148;-71
2022/01/17 02:21:34;;;;;;;27.90;16.20;;;;;;;2.28;86.47;99387.04;208746;1317;140972;-72
2022/01/17 02:26:39;;;;;;;22.40;14.70;;;;;;;2.33;86.46;99391.95;207444;1316;141590;-72
2022/01/17 02:31:48;;;;;;;21.50;13.20;;;;;;;2.36;86.06;99384.12;208247;1317;140900;-75
2022/01/17 02:36:53;;;;;;;35.00;16.40;;;;;;;2.39;86.26;99374.11;208620;1321;142220;-75
2022/01/17 02:42:00;;;;;;;32.60;19.00;;;;;;;2.43;86.41;99356.86;208366;1321;141038;-75
2022/01/17 02:47:04;;;;;;;26.70;15.90;;;;;;;2.46;86.10;99335.00;208096;1320;140082;-75
2022/01/17 02:52:24;;;;;;;25.00;16.10;;;;;;;2.52;85.97;99323.91;207309;1317;140879;-72
2022/01/17 02:57:50;;;;;;;25.50;14.70;;;;;;;2.56;86.13;99306.67;207069;1318;141156;-68
2022/01/17 03:03:12;;;;;;;26.20;14.90;;;;;;;2.58;86.11;99301.25;207821;1318;139649;-74
2022/01/17 03:08:21;;;;;;;25.70;15.80;;;;;;;2.57;85.83;99293.91;207151;1318;139728;-74
2022/01/17 03:13:35;;;;;;;21.50;13.00;;;;;;;2.57;85.76;99287.48;208100;1318;139560;-77
2022/01/17 03:18:51;;;;;;;27.20;17.10;;;;;;;2.56;86.07;99282.81;206811;1318;139659;-76
2022/01/17 03:24:03;;;;;;;25.00;16.40;;;;;;;2.59;86.14;99282.48;207268;1318;139932;-73
2022/01/17 03:29:10;;;;;;;23.90;14.70;;;;;;;2.59;86.13;99287.13;208544;1316;141199;-74
2022/01/17 03:34:24;;;;;;;19.20;13.30;;;;;;;2.63;86.12;99273.35;208070;1316;141368;-75
2022/01/17 03:39:29;;;;;;;28.70;17.30;;;;;;;2.67;86.00;99273.77;207373;1317;140532;-73
2022/01/17 03:44:36;;;;;;;21.00;15.30;;;;;;;2.70;86.02;99261.73;207306;1319;140625;-72
2022/01/17 03:49:43;;;;;;;20.80;14.20;;;;;;;2.74;86.14;99239.40;207370;1318;139946;-72
2022/01/17 03:54:58;;;;;;;;;;;;;;;;;;;;;
2022/01/17 04:00:09;;;;;;;19.40;13.10;;;;;;;2.81;85.53;99224.48;206690;1317;140607;-73
2022/01/17 04:05:14;;;;;;;19.90;12.20;;;;;;;2.86;85.69;99220.60;207218;1318;140617;-71
2022/01/17 04:10:19;;;;;;;19.30;12.10;;;;;;;2.87;85.40;99209.84;208105;1318;140814;-76
2022/01/17 04:15:26;;;;;;;20.80;12.10;;;;;;;2.89;85.26;99212.31;208064;1315;143081;-73
2022/01/17 04:20:32;;;;;;;18.00;13.30;;;;;;;2.91;85.57;99205.68;208714;1316;141737;-68
2022/01/17 04:25:39;;;;;;;15.40;12.40;;;;;;;2.94;85.19;99188.88;209234;1316;140284;-75
2022/01/17 04:30:44;;;;;;;14.00;11.20;;;;;;;2.98;85.12;99182.66;209111;1318;139483;-73
2022/01/17 04:35:54;;;;;;;17.60;12.60;;;;;;;3.01;85.01;99163.30;208617;1316;140755;-73
2022/01/17 04:41:18;;;;;;;16.80;11.40;;;;;;;3.02;84.68;99138.92;208955;1320;140524;-73
2022/01/17 04:46:26;;;;;;;14.20;10.10;;;;;;;3.00;85.05;99139.89;208958;1318;139848;-75
2022/01/17 04:51:38;;;;;;;19.40;11.10;;;;;;;2.99;84.96;99152.45;208464;1316;140268;-75
2022/01/17 04:56:48;;;;;;;13.20;8.60;;;;;;;3.00;85.23;99147.30;208779;1321;140429;-75
2022/01/17 05:02:01;;;;;;;20.20;12.40;;;;;;;2.98;84.81;99134.86;207833;1318;141654;-75
2022/01/17 05:07:08;;;;;;;15.60;11.30;;;;;;;2.97;84.88;99132.02;208181;1316;139559;-77
2022/01/17 05:12:23;;;;;;;18.60;11.70;;;;;;;2.95;85.01;99112.86;208037;1320;140749;-76
2022/01/17 05:22:35;;;;;;;14.90;9.90;;;;;;;2.92;85.27;99105.69;207387;1320;142781;-74
2022/01/17 05:27:40;;;;;;;16.60;9.70;;;;;;;2.93;84.96;99089.45;207249;1319;141417;-75
2022/01/17 05:32:55;;;;;;;15.20;9.00;;;;;;;2.92;85.11;99071.98;207853;1318;141131;-74
2022/01/17 05:37:59;;;;;;;16.20;9.10;;;;;;;2.92;84.86;99065.02;206810;1316;140587;-72
2022/01/17 05:43:08;;;;;;;13.30;8.50;;;;;;;2.93;85.31;99049.47;206904;1317;142047;-74
2022/01/17 05:48:12;;;;;;;12.90;8.10;;;;;;;2.93;84.99;99045.38;207661;1318;140665;-78
2022/01/17 05:53:17;;;;;;;12.90;8.20;;;;;;;2.93;85.03;99045.90;206468;1319;1423328;-68
2022/01/17 05:58:23;;;;;;;13.70;9.10;;;;;;;2.93;84.94;99026.06;208096;1317;140849;-81
2022/01/17 06:03:28;;;;;;;15.20;9.50;;;;;;;2.94;85.00;99017.73;207823;1318;140128;-78
2022/01/17 06:08:38;;;;;;;14.70;8.70;;;;;;;2.94;85.13;98993.42;207275;1320;141261;-81
2022/01/17 06:13:43;;;;;;;13.60;8.10;;;;;;;2.96;85.18;98980.94;208490;1318;141390;-77
2022/01/17 06:18:52;;;;;;;13.20;8.30;;;;;;;2.98;84.91;98971.99;207639;1319;140596;-80
2022/01/17 06:24:00;;;;;;;13.00;7.50;;;;;;;3.03;84.83;98949.48;208135;1318;141036;-81
2022/01/17 06:29:09;;;;;;;;;;;;;;;3.09;84.99;98931.57;208675;1319;140130;-82
2022/01/17 06:34:14;;;;;;;12.30;7.20;;;;;;;3.10;85.08;98907.30;209643;1318;127345;-75
2022/01/17 06:39:19;;;;;;;14.20;9.10;;;;;;;3.14;84.65;98912.69;209048;1318;139861;-74
2022/01/17 06:44:24;;;;;;;12.30;6.80;;;;;;;3.18;84.44;98900.77;208945;1318;140761;-77
2022/01/17 06:49:29;;;;;;;8.30;4.80;;;;;;;3.14;84.30;98884.20;207485;1318;140585;-72
2022/01/17 06:54:34;;;;;;;6.80;5.40;;;;;;;3.16;84.36;98857.79;208185;1316;140297;-73
2022/01/17 06:59:39;;;;;;;10.40;5.10;;;;;;;3.14;84.51;98838.39;208712;1318;141069;-75
2022/01/17 07:04:46;;;;;;;5.80;4.40;;;;;;;3.16;84.27;98828.83;208059;1319;140353;-74
2022/01/17 07:09:51;;;;;;;7.40;4.00;;;;;;;3.20;84.22;98859.96;207617;1318;140521;-75
2022/01/17 07:15:06;;;;;;;9.50;4.90;;;;;;;3.22;83.92;98894.04;208015;1318;140362;-68
2022/01/17 07:20:14;;;;;;;13.40;5.50;;;;;;;3.26;84.20;98888.71;207296;1321;139152;-73
2022/01/17 07:25:20;;;;;;;9.00;4.60;;;;;;;3.26;84.27;98880.86;208452;1316;139395;-68
2022/01/17 07:33:13;;;;;;;8.60;5.20;;;;;;;3.35;83.66;98831.33;206229;1357;684550;-70
2022/01/17 07:38:16;;;;;;;5.10;3.60;;;;;;;3.26;83.81;98792.03;205404;1328;140119;-76
2022/01/17 07:43:21;;;;;;;6.20;4.40;;;;;;;3.22;83.97;98779.69;204279;1328;1095771;-70
2022/01/17 07:50:32;;;;;;;9.20;6.10;;;;;;;3.29;83.86;98787.00;207400;1354;662093;-68
2022/01/17 07:55:40;;;;;;;5.60;3.90;;;;;;;3.29;83.89;98753.45;205188;1328;140305;-69
2022/01/17 08:00:49;;;;;;;7.00;3.80;;;;;;;3.33;83.84;98731.34;206157;1322;210080;-69
2022/01/17 08:05:55;;;;;;;5.50;4.10;;;;;;;3.34;83.91;98701.71;206932;1324;139529;-68
2022/01/17 08:11:01;;;;;;;4.40;4.00;;;;;;;3.36;83.76;98704.72;206548;1323;139496;-70
2022/01/17 08:16:05;;;;;;;4.20;3.10;;;;;;;3.36;83.85;98695.04;207497;1323;139505;-70
2022/01/17 08:21:12;;;;;;;6.40;2.90;;;;;;;3.36;83.64;98693.41;207014;1319;139346;-70
2022/01/17 08:26:19;;;;;;;6.40;3.10;;;;;;;3.35;83.80;98681.48;206701;1319;138668;-71
2022/01/17 08:31:30;;;;;;;6.30;3.00;;;;;;;3.33;83.85;98685.98;208882;1317;150243;-72
2022/01/17 08:36:33;;;;;;;3.60;2.80;;;;;;;3.30;84.04;98676.29;208061;1319;139028;-73
2022/01/17 08:41:42;;;;;;;6.30;3.20;;;;;;;3.29;83.98;98643.55;207195;1322;140269;-73
2022/01/17 08:46:57;;;;;;;;;;;;;;;;;;;;;
2022/01/17 08:52:00;;;;;;;4.30;2.20;;;;;;;3.28;84.04;98604.05;208498;1322;140698;-76
2022/01/17 08:57:07;;;;;;;1.80;1.60;;;;;;;3.28;84.23;98599.16;207636;1322;139716;-75
2022/01/17 09:02:13;;;;;;;5.80;2.70;;;;;;;3.30;84.28;98596.83;207440;1322;140964;-78
2022/01/17 09:07:17;;;;;;;3.80;2.20;;;;;;;3.31;84.34;98583.16;207227;1322;140624;-78
2022/01/17 09:12:20;;;;;;;2.50;2.10;;;;;;;3.33;84.26;98583.52;207865;1318;139873;-77
2022/01/17 09:17:27;;;;;;;2.80;2.30;;;;;;;3.35;84.46;98593.73;207048;1319;139288;-78
2022/01/17 09:22:32;;;;;;;4.30;1.90;;;;;;;3.33;84.58;98566.98;207276;1319;139288;-70
2022/01/17 09:27:46;;;;;;;4.90;2.70;;;;;;;3.34;84.72;98560.80;207634;1319;139434;-68
2022/01/17 09:32:50;;;;;;;5.70;1.90;;;;;;;3.37;84.92;98543.91;207485;1319;139489;-71
2022/01/17 09:37:53;;;;;;;3.40;3.10;;;;;;;3.41;85.10;98540.83;207063;1314;139507;-70
2022/01/17 10:16:23;;;;;;;1.10;1.00;;;;;;;-0.31;86.23;98942.39;208942;1347;685406;-73
2022/01/17 10:21:53;;;;;;;0.80;0.80;;;;;;;-0.11;85.97;98924.47;206496;1328;141000;-75
2022/01/17 10:27:14;;;;;;;1.60;0.70;;;;;;;0.17;85.78;98924.37;206584;1325;739482;-79
2022/01/17 10:38:04;;;;;;;2.60;2.00;;;;;;;0.49;84.85;98967.25;206994;1325;138022;-72
2022/01/17 10:43:25;;;;;;;0.80;0.80;;;;;;;0.58;84.20;98966.13;206910;1325;139932;-79
2022/01/17 10:48:31;;;;;;;4.60;3.20;;;;;;;0.65;84.09;98935.94;206060;1326;139327;-75
2022/01/17 10:53:35;;;;;;;5.80;3.50;;;;;;;0.75;84.01;98943.13;206106;1325;228452;-78
2022/01/17 10:58:41;;;;;;;6.20;2.80;;;;;;;0.80;83.65;98972.27;205739;1325;138374;-68
2022/01/17 11:03:46;;;;;;;5.30;1.60;;;;;;;0.87;83.52;98988.20;205465;1325;139444;-73
2022/01/17 11:08:52;;;;;;;4.20;1.90;;;;;;;0.99;83.25;98980.39;205456;1326;139547;-76
2022/01/17 11:14:01;;;;;;;8.60;3.50;;;;;;;0.99;82.97;98974.61;206417;1326;140820;-73
2022/01/17 11:20:03;;;;;;;3.10;2.30;;;;;;;0.92;82.58;98986.95;205724;1324;141571;-73
2022/01/17 11:24:40;;;;;;;1.50;1.40;;;;;;;0.97;82.34;98991.80;205357;1325;138608;-71
2022/01/17 11:29:47;;;;;;;2.80;1.30;;;;;;;1.35;82.30;98991.88;205752;1325;139276;-75
2022/01/17 11:34:57;;;;;;;2.20;1.70;;;;;;;1.72;81.87;98993.16;205728;1325;139424;-77
2022/01/17 11:40:01;;;;;;;2.90;1.50;;;;;;;1.79;81.60;99002.56;206077;1325;139601;-77
2022/01/17 11:45:25;;;;;;;3.10;2.00;;;;;;;2.00;81.14;99029.16;205421;1325;139820;-78
2022/01/17 14:06:22;;;;;;;3.10;1.40;;;;;;;1.84;77.45;99407.20;206327;1343;3521717;-73
2022/01/17 14:11:40;;;;;;;3.60;1.40;;;;;;;1.89;77.48;99436.86;205343;1328;139254;-77
2022/01/17 14:16:47;;;;;;;2.50;1.30;;;;;;;1.85;77.24;99477.50;205344;1325;140149;-73
2022/01/17 14:22:08;;;;;;;7.20;1.40;;;;;;;1.80;77.04;99484.09;206035;1329;139093;-75
2022/01/17 14:27:18;;;;;;;4.40;1.10;;;;;;;1.76;76.70;99487.15;204923;1329;141198;-74
2022/01/17 14:33:29;;;;;;;3.70;1.00;;;;;;;1.75;76.24;99491.89;209053;1344;658015;-72
2022/01/17 14:38:47;;;;;;;6.10;1.70;;;;;;;1.66;76.11;99498.02;204466;1331;140078;-78
2022/01/17 14:43:54;;;;;;;4.60;1.40;;;;;;;1.62;75.71;99511.05;203359;1331;937171;-69
2022/01/17 14:49:30;;;;;;;8.40;1.90;;;;;;;1.60;75.52;99529.60;204759;1328;139527;-75
2022/01/17 14:54:45;;;;;;;3.80;1.00;;;;;;;1.53;75.05;99551.88;204707;1329;138291;-70
2022/01/17 15:00:07;;;;;;;6.30;1.10;;;;;;;1.43;74.92;99568.06;206110;1326;138964;-74
2022/01/17 15:05:15;;;;;;;5.20;2.00;;;;;;;1.38;74.93;99583.98;204785;1328;140929;-71
2022/01/17 15:10:27;;;;;;;4.40;1.30;;;;;;;1.38;74.37;99604.91;205402;1328;139419;-71
2022/01/17 15:15:38;;;;;;;9.70;2.30;;;;;;;1.35;74.26;99622.72;205537;1328;139541;-71
2022/01/17 15:20:46;;;;;;;3.90;1.00;;;;;;;1.29;74.06;99650.10;205494;1328;139443;-74
2022/01/17 15:25:52;;;;;;;5.40;1.20;;;;;;;1.26;73.99;99677.48;206412;1328;140626;-74
2022/01/17 15:30:57;;;;;;;3.00;1.20;;;;;;;1.22;73.86;99686.05;204973;1328;139341;-70
2022/01/17 15:36:03;;;;;;;3.90;1.60;;;;;;;1.13;73.45;99693.71;205931;1331;140259;-75
2022/01/17 15:41:09;;;;;;;6.10;2.40;;;;;;;1.06;73.64;99711.86;206832;1330;140877;-75
2022/01/17 15:46:16;;;;;;;2.40;1.30;;;;;;;1.05;73.50;99737.89;205672;1331;140295;-74
2022/01/17 15:51:21;;;;;;;;;;;;;;;1.02;73.20;99767.36;206279;1331;139997;-74
2022/01/17 15:56:26;;;;;;;5.40;1.40;;;;;;;0.94;73.22;99791.58;205173;1331;125616;-73
2022/01/17 16:01:32;;;;;;;9.10;2.40;;;;;;;0.95;72.91;99818.08;205254;1329;139361;-72
2022/01/17 16:06:37;;;;;;;4.30;1.60;;;;;;;0.98;72.97;99824.50;204945;1331;138732;-71
2022/01/17 16:11:51;;;;;;;3.40;1.40;;;;;;;0.97;72.98;99827.30;204780;1331;140182;-72
2022/01/17 16:16:58;;;;;;;5.70;3.20;;;;;;;0.95;72.78;99836.71;205568;1331;138332;-77
2022/01/17 16:22:04;;;;;;;4.10;1.50;;;;;;;0.93;72.64;99849.98;204643;1331;140619;-72
2022/01/17 16:27:09;;;;;;;5.20;1.50;;;;;;;0.95;72.70;99858.96;205386;1325;140282;-71
2022/01/17 16:32:21;;;;;;;5.30;1.50;;;;;;;0.95;72.74;99863.69;205320;1325;139500;-73
2022/01/17 16:37:27;;;;;;;4.80;1.10;;;;;;;0.91;72.75;99880.25;205813;1324;140903;-69
2022/01/17 16:42:34;;;;;;;5.00;1.30;;;;;;;0.85;72.68;99895.95;206477;1322;140045;-72
2022/01/17 16:47:46;;;;;;;5.80;2.50;;;;;;;0.83;72.11;99911.40;206018;1324;141038;-72
2022/01/17 16:52:51;;;;;;;4.60;1.70;;;;;;;0.80;72.06;99936.11;205587;1323;141509;-67
2022/01/17 16:57:59;;;;;;;6.80;3.00;;;;;;;0.76;72.06;99957.05;206343;1328;140008;-76
2022/01/17 17:03:15;;;;;;;10.40;3.00;;;;;;;0.70;72.17;99976.48;205974;1325;140265;-73
2022/01/17 17:08:29;;;;;;;5.00;2.10;;;;;;;0.68;72.07;99998.95;206663;1325;140205;-72
2022/01/17 17:13:41;;;;;;;4.30;2.50;;;;;;;0.69;72.06;100018.60;206295;1325;140430;-77
2022/01/17 17:18:53;;;;;;;2.30;2.10;;;;;;;0.69;72.14;100030.66;207264;1324;140044;-73
2022/01/17 17:24:10;;;;;;;15.00;2.40;;;;;;;0.68;71.94;100038.77;207387;1318;140476;-70
2022/01/17 17:29:28;;;;;;;1.40;1.10;;;;;;;0.67;71.57;100056.27;208133;1319;140139;-69
2022/01/17 17:34:45;;;;;;;3.40;2.10;;;;;;;0.71;71.55;100066.71;209189;1322;140091;-72
2022/01/17 17:39:59;;;;;;;2.00;1.30;;;;;;;0.74;71.44;100077.77;208296;1321;139842;-71
2022/01/17 17:45:06;;;;;;;3.10;1.90;;;;;;;0.74;71.17;100082.63;207932;1318;139408;-79
2022/01/17 17:50:20;;;;;;;6.20;1.50;;;;;;;0.74;70.93;100094.52;208265;1319;138744;-72
2022/01/17 17:55:31;;;;;;;4.90;2.10;;;;;;;0.73;70.64;100109.52;207620;1318;138967;-78
2022/01/17 18:00:37;;;;;;;;;;;;;;;0.74;70.76;100126.02;208683;1320;139464;-77
2022/01/17 18:05:58;;;;;;;5.10;2.60;;;;;;;0.69;70.73;100130.00;208108;1318;125070;-73
2022/01/17 18:11:05;;;;;;;4.30;1.70;;;;;;;0.70;70.98;100138.17;207691;1319;140772;-75
2022/01/17 18:16:11;;;;;;;7.20;2.70;;;;;;;0.66;70.49;100136.23;207649;1318;138589;-65
2022/01/17 18:21:17;;;;;;;6.20;1.80;;;;;;;0.63;70.43;100151.08;207547;1318;139677;-66
2022/01/17 18:26:26;;;;;;;7.50;2.10;;;;;;;0.60;70.36;100159.84;206877;1319;140201;-66
2022/01/17 18:31:32;;;;;;;9.50;3.00;;;;;;;0.54;70.23;100164.97;207468;1318;139716;-66
2022/01/17 18:36:41;;;;;;;8.30;1.90;;;;;;;0.46;70.41;100176.67;207080;1318;138832;-66
2022/01/17 18:41:46;;;;;;;10.70;2.60;;;;;;;0.36;69.77;100190.46;207775;1319;140543;-67
2022/01/17 18:46:52;;;;;;;6.10;2.10;;;;;;;0.29;70.02;100206.25;207154;1316;142765;-66
2022/01/17 18:52:07;;;;;;;2.20;1.30;;;;;;;0.25;69.91;100213.25;207072;1318;139241;-66
2022/01/17 18:57:13;;;;;;;6.90;2.00;;;;;;;0.19;69.78;100223.73;207304;1319;140136;-67
2022/01/17 19:02:17;;;;;;;7.00;1.40;;;;;;;0.10;70.05;100238.20;208160;1319;140657;-66
2022/01/17 19:10:57;;;;;;;4.20;1.60;;;;;;;0.03;69.73;100247.35;207689;1352;683831;-66
2022/01/17 19:16:02;;;;;;;5.30;2.30;;;;;;;-0.02;69.73;100265.16;206337;1327;140245;-67
2022/01/17 19:26:34;;;;;;;7.00;2.20;;;;;;;-0.06;69.79;100298.45;208731;1317;126779;-66
2022/01/17 19:31:37;;;;;;;4.50;2.00;;;;;;;-0.12;69.62;100313.88;207412;1318;138910;-67
2022/01/17 19:36:44;;;;;;;4.60;2.10;;;;;;;-0.18;69.88;100317.27;208669;1318;139379;-68
2022/01/17 19:41:47;;;;;;;10.80;2.40;;;;;;;-0.21;70.11;100321.04;209039;1318;139165;-67
2022/01/17 19:46:52;;;;;;;8.80;2.70;;;;;;;-0.19;70.02;100333.55;208653;1318;140346;-67
2022/01/17 19:51:55;;;;;;;8.50;2.40;;;;;;;-0.18;69.82;100340.36;209286;1317;140968;-67
2022/01/17 19:56:58;;;;;;;3.20;2.00;;;;;;;-0.21;69.85;100352.98;208945;1318;139815;-69
2022/01/17 20:02:01;;;;;;;8.00;1.90;;;;;;;-0.24;70.31;100357.27;209377;1317;138844;-70
2022/01/17 20:07:05;;;;;;;3.10;1.60;;;;;;;-0.25;70.25;100356.41;208345;1316;151786;-67
2022/01/17 20:12:09;;;;;;;5.90;1.50;;;;;;;-0.24;70.09;100366.56;207677;1317;143046;-67
2022/01/17 20:17:13;;;;;;;4.50;2.40;;;;;;;-0.24;70.13;100380.55;207626;1316;140560;-65
2022/01/17 20:22:16;;;;;;;4.60;1.80;;;;;;;-0.28;70.24;100403.99;207528;1318;140645;-66
2022/01/17 20:27:30;;;;;;;3.30;1.80;;;;;;;-0.35;70.34;100417.98;208605;1318;140351;-66
2022/01/17 20:32:33;;;;;;;8.20;2.30;;;;;;;-0.44;70.31;100436.25;207167;1318;139823;-65
2022/01/17 20:37:39;;;;;;;7.70;2.40;;;;;;;-0.46;70.41;100447.52;206845;1318;139689;-65
2022/01/17 20:42:42;;;;;;;9.00;3.20;;;;;;;-0.44;70.60;100461.02;207088;1318;140732;-68
2022/01/17 20:47:45;;;;;;;8.20;3.20;;;;;;;-0.43;70.66;100465.96;207488;1318;140115;-66
2022/01/17 20:52:51;;;;;;;9.20;2.80;;;;;;;-0.45;70.83;100473.20;207049;1318;139382;-66
2022/01/17 20:57:54;;;;;;;7.10;2.90;;;;;;;-0.52;70.94;100482.05;208699;1316;139356;-66
2022/01/17 21:03:37;;;;;;;7.50;3.00;;;;;;;-0.56;70.75;100495.24;207661;1318;138839;-66
2022/01/17 21:08:42;;;;;;;12.70;3.30;;;;;;;-0.65;70.86;100504.61;206942;1318;140782;-66
2022/01/17 21:13:45;;;;;;;6.90;3.30;;;;;;;-0.72;70.99;100516.66;206942;1316;140095;-64
2022/01/17 21:18:48;;;;;;;10.40;3.80;;;;;;;-0.79;70.96;100522.15;207076;1316;139557;-64
2022/01/17 21:23:52;;;;;;;9.70;5.10;;;;;;;-0.79;71.00;100536.31;208105;1319;140089;-64
2022/01/17 21:28:54;;;;;;;15.60;4.30;;;;;;;-0.84;71.17;100547.40;208522;1317;149884;-71
2022/01/17 21:34:05;;;;;;;19.10;4.40;;;;;;;-0.88;71.25;100549.33;208237;1315;138918;-68
2022/01/17 21:39:11;;;;;;;13.30;6.30;;;;;;;-0.93;71.23;100556.34;208568;1319;139513;-69
2022/01/17 21:44:17;;;;;;;16.50;6.30;;;;;;;-0.98;71.27;100565.98;208549;1318;140778;-67
2022/01/17 21:49:26;;;;;;;13.30;4.10;;;;;;;-1.05;71.41;100573.36;207999;1318;139939;-67
2022/01/17 21:54:29;;;;;;;13.60;6.00;;;;;;;-1.04;71.46;100577.86;209027;1318;140702;-68
2022/01/17 21:59:38;;;;;;;14.20;4.70;;;;;;;-1.03;71.64;100594.86;209433;1320;141411;-67
2022/01/17 22:04:45;;;;;;;9.70;4.00;;;;;;;-1.02;71.96;100598.45;208983;1318;141582;-68
2022/01/17 22:09:49;;;;;;;;;;;;;;;-0.99;71.99;100595.08;209158;1318;139516;-67
2022/01/17 22:14:55;;;;;;;13.00;5.60;;;;;;;-1.02;71.92;100599.15;208462;1318;128072;-67
2022/01/17 22:20:01;;;;;;;10.30;4.70;;;;;;;-1.08;71.90;100596.18;208141;1318;140322;-68
2022/01/17 22:25:08;;;;;;;11.60;5.40;;;;;;;-1.12;71.81;100603.52;207456;1319;140096;-66
2022/01/17 22:30:12;;;;;;;18.00;5.00;;;;;;;-1.12;72.00;100601.79;207427;1320;144583;-65
2022/01/17 22:35:17;;;;;;;25.30;8.50;;;;;;;-1.18;72.05;100607.08;206994;1321;139169;-65
2022/01/17 22:40:24;;;;;;;14.20;6.30;;;;;;;-1.25;72.21;100601.59;207519;1320;141320;-65
2022/01/17 22:45:26;;;;;;;15.90;5.90;;;;;;;-1.31;72.29;100602.68;206618;1320;139269;-64
2022/01/17 22:50:29;;;;;;;13.10;5.20;;;;;;;-1.38;72.56;100606.55;206967;1319;141020;-65
2022/01/17 22:55:32;;;;;;;13.50;5.20;;;;;;;-1.42;72.66;100615.31;207248;1316;139241;-64
2022/01/17 23:00:36;;;;;;;10.40;4.20;;;;;;;-1.41;72.74;100623.78;207063;1316;141088;-65
2022/01/17 23:05:39;;;;;;;15.90;6.10;;;;;;;-1.41;72.91;100632.65;207329;1317;139788;-65
2022/01/17 23:10:49;;;;;;;18.00;5.30;;;;;;;-1.43;73.11;100636.64;207659;1317;140144;-65
2022/01/17 23:15:53;;;;;;;18.40;4.40;;;;;;;-1.45;73.39;100639.24;207763;1318;221269;-65
2022/01/17 23:21:05;;;;;;;18.20;7.50;;;;;;;-1.49;73.37;100641.77;208204;1317;140520;-68
2022/01/17 23:26:08;;;;;;;15.70;7.60;;;;;;;-1.52;73.38;100640.83;207680;1316;139449;-67
2022/01/17 23:36:40;;;;;;;20.50;6.20;;;;;;;-1.51;73.48;100638.29;208352;1317;140585;-67
2022/01/17 23:41:47;;;;;;;16.90;6.00;;;;;;;-1.50;73.56;100641.30;207847;1317;138892;-66
2022/01/17 23:46:49;;;;;;;12.00;4.70;;;;;;;-1.49;73.63;100643.14;208066;1318;139763;-67
2022/01/17 23:51:53;;;;;;;16.20;5.40;;;;;;;-1.56;73.60;100649.52;208261;1316;139942;-66
2022/01/17 23:56:56;;;;;;;13.10;6.50;;;;;;;-1.66;73.73;100653.58;208467;1316;140926;-66
